Ogallala, NE

9:17 AM MDT on July 26, 2017 (GMT -0600)
Searle

Weather History for KOGA - April, 2013

Change the Weather History Date:

Wednesday, April 24, 2013

  Actual Average Record
Temperature  
Mean Temperature 37 °F -  
Max Temperature 57 °F 69 °F 90 °F (2012)
Min Temperature 18 °F 37 °F 18 °F (2013)
Degree Days  
Heating Degree Days 28    
Moisture  
Dew Point 19 °F    
Average Humidity 53    
Maximum Humidity 90    
Minimum Humidity 19    
Precipitation  
Precipitation 0.00 in - - ()
Sea Level Pressure  
Sea Level Pressure 30.14 in    
Wind  
Wind Speed 9 mph (WNW)    
Max Wind Speed 28 mph    
Max Gust Speed 37 mph    
Visibility 10 miles    
Events      
Averages and records for this station are not official NWS values.
T = Trace of Precipitation, MM = Missing Value Source: NWS Daily Summary

Daily Weather History Graph

Daily Weather History Graph

Search for Another Location

Airport or City:

Trip Planner

Search our weather history database for the weather conditions in past years. The results will help you decide how hot, cold, wet, or windy it might be!

Date:

Astronomy

Apr. 24, 2013 Rise Set
Actual Time 5:53 AM MDT 7:36 PM MDT
Civil Twilight 5:24 AM MDT 8:06 PM MDT
Nautical Twilight 4:49 AM MDT 8:42 PM MDT
Astronomical Twilight 4:11 AM MDT 9:20 PM MDT
Moon 6:42 PM MDT (4/24) 4:59 AM MDT (4/24)
Length of Visible Light 14h 41m
Length of Day
13h 42m
Waxing Gibbous, 98% of the Moon is Illuminated
Apr 24
Waxing Gibbous
Apr 25
Full
May 2
Last Quarter
May 9
New
May 17
First Quarter

Hourly Weather History & Observations

Time (MDT) Temp. Windchill Dew Point Humidity Pressure Visibility Wind Dir Wind Speed Gust Speed Precip Events Conditions
12:15 AM 21.0 °F 16.2 °F 15.6 °F 80% 30.18 in 10.0 mi West 3.5 mph - N/A   Clear
12:35 AM 21.4 °F 16.6 °F 15.1 °F 77% 30.18 in 10.0 mi WSW 3.5 mph - N/A   Clear
12:55 AM 21.2 °F - 14.9 °F 77% 30.17 in 10.0 mi Calm Calm - N/A   Clear
1:15 AM 21.2 °F 16.4 °F 14.7 °F 76% 30.17 in 10.0 mi SW 3.5 mph - N/A   Clear
1:35 AM 20.3 °F - 15.3 °F 81% 30.16 in 10.0 mi Calm Calm - N/A   Clear
1:55 AM 19.4 °F 14.3 °F 15.4 °F 85% 30.15 in 10.0 mi West 3.5 mph - N/A   Clear
2:15 AM 19.4 °F - 14.9 °F 83% 30.14 in 10.0 mi Calm Calm - N/A   Clear
2:35 AM 18.9 °F - 13.8 °F 81% 30.13 in 10.0 mi Calm Calm - N/A   Clear
2:55 AM 19.4 °F - 15.3 °F 84% 30.13 in 10.0 mi Calm Calm - N/A   Clear
3:15 AM 19.9 °F 14.9 °F 15.4 °F 83% 30.13 in 10.0 mi West 3.5 mph - N/A   Clear
3:35 AM 19.4 °F 14.3 °F 15.6 °F 85% 30.13 in 10.0 mi West 3.5 mph - N/A   Clear
4:15 AM 19.9 °F 14.9 °F 16.7 °F 87% 30.12 in 10.0 mi West 3.5 mph - N/A   Clear
4:35 AM 20.3 °F 12.5 °F 17.6 °F 89% 30.13 in 10.0 mi West 5.8 mph - N/A   Clear
4:55 AM 21.0 °F 14.6 °F 18.5 °F 90% 30.12 in 10.0 mi WNW 4.6 mph - N/A   Clear
5:15 AM 22.8 °F 18.2 °F 19.8 °F 88% 30.11 in 10.0 mi West 3.5 mph - N/A   Clear
5:35 AM 22.1 °F 12.8 °F 19.2 °F 89% 30.10 in 10.0 mi West 8.1 mph - N/A   Clear
5:55 AM 22.5 °F 16.3 °F 18.9 °F 86% 30.10 in 10.0 mi WSW 4.6 mph - N/A   Clear
6:15 AM 21.7 °F 14.3 °F 18.9 °F 89% 30.11 in 10.0 mi West 5.8 mph - N/A   Clear
6:35 AM 24.3 °F 15.4 °F 20.7 °F 86% 30.12 in 10.0 mi WSW 8.1 mph - N/A   Clear
6:55 AM 27.7 °F 18.8 °F 22.3 °F 80% 30.13 in 10.0 mi West 9.2 mph - N/A   Clear
7:15 AM 28.4 °F 20.4 °F 22.8 °F 80% 30.14 in 10.0 mi West 8.1 mph - N/A   Clear
7:35 AM 30.6 °F 19.8 °F 23.5 °F 75% 30.14 in 10.0 mi West 15.0 mph - N/A   Clear
7:55 AM 31.8 °F 22.3 °F 24.3 °F 74% 30.15 in 10.0 mi West 12.7 mph - N/A   Clear
8:15 AM 32.7 °F 25.7 °F 24.8 °F 73% 30.15 in 10.0 mi West 8.1 mph - N/A   Clear
8:35 AM 36.3 °F 29.5 °F 26.8 °F 68% 30.15 in 10.0 mi WSW 9.2 mph - N/A   Clear
8:55 AM 39.4 °F 33.2 °F 27.3 °F 62% 30.15 in 10.0 mi WSW 9.2 mph - N/A   Clear
9:15 AM 44.6 °F 38.1 °F 23.4 °F 43% 30.14 in 10.0 mi WNW 13.8 mph - N/A   Clear
9:35 AM 46.6 °F - 18.7 °F 33% 30.14 in 10.0 mi WNW 13.8 mph 20.7 mph N/A   Clear
9:55 AM 47.5 °F - 16.0 °F 28% 30.13 in 10.0 mi NW 16.1 mph - N/A   Clear
10:15 AM 48.7 °F - 14.9 °F 26% 30.13 in 10.0 mi WNW 13.8 mph 18.4 mph N/A   Clear
10:35 AM 50.4 °F - 17.2 °F 27% 30.14 in 10.0 mi WNW 16.1 mph 21.9 mph N/A   Clear
10:55 AM 50.7 °F - 15.8 °F 25% 30.14 in 10.0 mi WNW 15.0 mph 21.9 mph N/A   Clear
11:15 AM 52.0 °F - 12.2 °F 20% 30.13 in 10.0 mi NW 17.3 mph 24.2 mph N/A   Clear
11:35 AM 53.2 °F - 12.0 °F 19% 30.12 in 10.0 mi NW 16.1 mph 25.3 mph N/A   Clear
11:55 AM 53.4 °F - 11.5 °F 19% 30.12 in 10.0 mi WNW 18.4 mph 24.2 mph N/A   Clear
12:15 PM 54.7 °F - 13.8 °F 20% 30.12 in 10.0 mi WNW 18.4 mph 28.8 mph N/A   Clear
12:35 PM 55.6 °F - 14.5 °F 20% 30.12 in 10.0 mi NW 20.7 mph 33.4 mph N/A   Clear
12:55 PM 55.9 °F - 15.1 °F 20% 30.11 in 10.0 mi NW 21.9 mph 34.5 mph N/A   Clear
1:15 PM 56.3 °F - 14.4 °F 19% 30.11 in 10.0 mi WNW 27.6 mph 36.8 mph N/A   Clear
1:35 PM 55.6 °F - 14.2 °F 20% 30.11 in 10.0 mi WNW 27.6 mph 36.8 mph N/A   Scattered Clouds
1:55 PM 55.8 °F - 15.6 °F 21% 30.11 in 10.0 mi WNW 23.0 mph 34.5 mph N/A   Mostly Cloudy
2:15 PM 55.0 °F - 17.4 °F 23% 30.11 in 10.0 mi NW 25.3 mph 32.2 mph N/A   Mostly Cloudy
2:35 PM 55.4 °F - 21.0 °F 26% 30.13 in 10.0 mi NW 24.2 mph 34.5 mph N/A   Mostly Cloudy
2:55 PM 54.9 °F - 21.6 °F 27% 30.13 in 10.0 mi NW 26.5 mph 35.7 mph N/A   Scattered Clouds
3:15 PM 54.5 °F - 21.7 °F 28% 30.14 in 10.0 mi NW 23.0 mph 34.5 mph N/A   Clear
3:35 PM 55.6 °F - 22.6 °F 28% 30.13 in 10.0 mi NW 23.0 mph 31.1 mph N/A   Clear
3:55 PM 55.0 °F - 21.0 °F 27% 30.13 in 10.0 mi NNW 20.7 mph 35.7 mph N/A   Scattered Clouds
4:15 PM 54.9 °F - 19.9 °F 26% 30.13 in 10.0 mi NW 21.9 mph 31.1 mph N/A   Scattered Clouds
4:35 PM 53.2 °F - 19.6 °F 27% 30.13 in 10.0 mi NW 19.6 mph 28.8 mph N/A   Scattered Clouds
4:55 PM 54.0 °F - 18.3 °F 25% 30.12 in 10.0 mi NW 19.6 mph 33.4 mph N/A   Scattered Clouds
5:15 PM 52.7 °F - 20.7 °F 29% 30.13 in 10.0 mi NNW 25.3 mph 29.9 mph N/A   Clear
5:35 PM 52.7 °F - 19.9 °F 28% 30.13 in 10.0 mi NNW 18.4 mph 29.9 mph N/A   Clear
5:55 PM 52.7 °F - 19.6 °F 27% 30.14 in 10.0 mi North 16.1 mph - N/A   Clear
6:15 PM 51.8 °F - 19.6 °F 28% 30.14 in 10.0 mi NNW 17.3 mph 21.9 mph N/A   Clear
6:35 PM 51.3 °F - 19.8 °F 29% 30.14 in 10.0 mi North 16.1 mph 24.2 mph N/A   Clear
6:55 PM 50.0 °F - 20.3 °F 31% 30.15 in 10.0 mi North 12.7 mph - N/A   Clear
7:15 PM 48.2 °F - 20.8 °F 34% 30.15 in 10.0 mi North 11.5 mph - N/A   Clear
7:35 PM 45.7 °F 41.0 °F 22.1 °F 39% 30.15 in 10.0 mi North 9.2 mph - N/A   Clear
7:55 PM 43.7 °F 38.6 °F 23.4 °F 45% 30.16 in 10.0 mi North 9.2 mph - N/A   Clear
9:15 PM 36.1 °F - 23.0 °F 59% 30.19 in 10.0 mi Calm Calm - N/A   Clear
9:35 PM 31.6 °F 28.3 °F 21.7 °F 67% 30.20 in 10.0 mi WSW 3.5 mph - N/A   Clear
9:55 PM 32.4 °F - 22.1 °F 66% 30.21 in 10.0 mi Calm Calm - N/A   Clear
10:15 PM 33.3 °F 30.2 °F 22.8 °F 66% 30.21 in 10.0 mi WNW 3.5 mph - N/A   Clear
10:35 PM 29.3 °F 24.3 °F 21.0 °F 71% 30.21 in 10.0 mi West 4.6 mph - N/A   Clear
10:55 PM 28.6 °F 24.8 °F 21.6 °F 75% 30.20 in 10.0 mi WNW 3.5 mph - N/A   Clear
11:15 PM 28.0 °F 24.2 °F 19.8 °F 71% 30.20 in 10.0 mi SSW 3.5 mph - N/A   Clear
11:35 PM 28.0 °F 24.2 °F 21.4 °F 76% 30.20 in 10.0 mi NW 3.5 mph - N/A   Clear
11:55 PM 27.0 °F 20.5 °F 20.8 °F 78% 30.20 in 10.0 mi West 5.8 mph - N/A   Clear